sensor_id;sensor_type;location;lat;lon;timestamp;temperature;humidity
23731;DHT22;12046;44.702;10.622;2023-02-28T00:00:21;5.60;99.90
23731;DHT22;12046;44.702;10.622;2023-02-28T00:02:48;5.60;99.90
23731;DHT22;12046;44.702;10.622;2023-02-28T00:05:14;5.50;99.90
23731;DHT22;12046;44.702;10.622;2023-02-28T00:07:40;5.50;99.90
23731;DHT22;12046;44.702;10.622;2023-02-28T00:10:07;5.50;99.90
23731;DHT22;12046;44.702;10.622;2023-02-28T00:12:34;5.50;99.90
23731;DHT22;12046;44.702;10.622;2023-02-28T00:15:00;5.50;99.90
23731;DHT22;12046;44.702;10.622;2023-02-28T00:17:25;5.60;99.90
23731;DHT22;12046;44.702;10.622;2023-02-28T00:19:51;5.60;99.90
23731;DHT22;12046;44.702;10.622;2023-02-28T00:22:18;5.50;99.90
23731;DHT22;12046;44.702;10.622;2023-02-28T00:24:44;5.60;99.90
23731;DHT22;12046;44.702;10.622;2023-02-28T00:27:09;5.60;99.90
23731;DHT22;12046;44.702;10.622;2023-02-28T00:29:35;5.70;99.90
23731;DHT22;12046;44.702;10.622;2023-02-28T00:32:01;5.70;99.90
23731;DHT22;12046;44.702;10.622;2023-02-28T00:34:26;5.70;99.90
23731;DHT22;12046;44.702;10.622;2023-02-28T00:36:52;5.80;99.90
23731;DHT22;12046;44.702;10.622;2023-02-28T00:39:18;5.80;99.90
23731;DHT22;12046;44.702;10.622;2023-02-28T00:41:43;5.90;99.90
23731;DHT22;12046;44.702;10.622;2023-02-28T00:44:09;5.90;99.90
23731;DHT22;12046;44.702;10.622;2023-02-28T00:46:35;6.00;99.90
23731;DHT22;12046;44.702;10.622;2023-02-28T00:49:00;6.00;99.90
23731;DHT22;12046;44.702;10.622;2023-02-28T00:51:26;6.00;99.90
23731;DHT22;12046;44.702;10.622;2023-02-28T00:53:51;6.00;99.90
23731;DHT22;12046;44.702;10.622;2023-02-28T00:56:17;6.00;99.90
23731;DHT22;12046;44.702;10.622;2023-02-28T00:58:43;6.00;99.90
23731;DHT22;12046;44.702;10.622;2023-02-28T01:01:08;6.00;99.90
23731;DHT22;12046;44.702;10.622;2023-02-28T01:03:34;6.00;99.90
23731;DHT22;12046;44.702;10.622;2023-02-28T01:06:00;6.00;99.90
23731;DHT22;12046;44.702;10.622;2023-02-28T01:08:25;6.10;99.90
23731;DHT22;12046;44.702;10.622;2023-02-28T01:10:52;6.00;99.90
23731;DHT22;12046;44.702;10.622;2023-02-28T01:13:17;6.10;99.90
23731;DHT22;12046;44.702;10.622;2023-02-28T01:15:48;6.10;99.90
23731;DHT22;12046;44.702;10.622;2023-02-28T01:18:14;6.10;99.90
23731;DHT22;12046;44.702;10.622;2023-02-28T01:20:39;6.10;99.90
23731;DHT22;12046;44.702;10.622;2023-02-28T01:23:05;6.10;99.90
23731;DHT22;12046;44.702;10.622;2023-02-28T01:25:31;6.20;99.90
23731;DHT22;12046;44.702;10.622;2023-02-28T01:27:59;6.20;99.90
23731;DHT22;12046;44.702;10.622;2023-02-28T01:30:24;6.20;99.90
23731;DHT22;12046;44.702;10.622;2023-02-28T01:32:50;6.20;99.90
23731;DHT22;12046;44.702;10.622;2023-02-28T01:35:19;6.20;99.90
23731;DHT22;12046;44.702;10.622;2023-02-28T01:37:44;6.20;99.90
23731;DHT22;12046;44.702;10.622;2023-02-28T01:40:10;6.20;99.90
23731;DHT22;12046;44.702;10.622;2023-02-28T01:42:36;6.20;99.90
23731;DHT22;12046;44.702;10.622;2023-02-28T01:47:38;6.10;99.90
23731;DHT22;12046;44.702;10.622;2023-02-28T01:50:07;6.10;99.90
23731;DHT22;12046;44.702;10.622;2023-02-28T01:52:35;6.10;99.90
23731;DHT22;12046;44.702;10.622;2023-02-28T01:55:01;6.10;99.90
23731;DHT22;12046;44.702;10.622;2023-02-28T01:57:29;6.10;99.90
23731;DHT22;12046;44.702;10.622;2023-02-28T02:00:05;6.10;99.90
23731;DHT22;12046;44.702;10.622;2023-02-28T02:02:32;6.10;99.90
23731;DHT22;12046;44.702;10.622;2023-02-28T02:04:59;6.10;99.90
23731;DHT22;12046;44.702;10.622;2023-02-28T02:07:26;6.10;99.90
23731;DHT22;12046;44.702;10.622;2023-02-28T02:10:02;6.10;99.90
23731;DHT22;12046;44.702;10.622;2023-02-28T02:12:45;6.10;99.90
23731;DHT22;12046;44.702;10.622;2023-02-28T02:15:16;6.10;99.90
23731;DHT22;12046;44.702;10.622;2023-02-28T02:17:44;6.10;99.90
23731;DHT22;12046;44.702;10.622;2023-02-28T02:27:48;6.00;99.90
23731;DHT22;12046;44.702;10.622;2023-02-28T02:40:21;6.10;99.90
23731;DHT22;12046;44.702;10.622;2023-02-28T02:45:32;6.00;99.90
23731;DHT22;12046;44.702;10.622;2023-02-28T02:48:02;6.00;99.90
23731;DHT22;12046;44.702;10.622;2023-02-28T02:50:35;6.00;99.90
23731;DHT22;12046;44.702;10.622;2023-02-28T02:53:02;6.00;99.90
23731;DHT22;12046;44.702;10.622;2023-02-28T02:55:29;6.00;99.90
23731;DHT22;12046;44.702;10.622;2023-02-28T02:58:01;6.00;99.90
23731;DHT22;12046;44.702;10.622;2023-02-28T03:00:34;5.90;99.90
23731;DHT22;12046;44.702;10.622;2023-02-28T03:03:01;5.90;99.90
23731;DHT22;12046;44.702;10.622;2023-02-28T03:05:31;5.90;99.90
23731;DHT22;12046;44.702;10.622;2023-02-28T03:07:59;5.90;99.90
23731;DHT22;12046;44.702;10.622;2023-02-28T03:10:35;5.90;99.90
23731;DHT22;12046;44.702;10.622;2023-02-28T03:13:24;5.80;99.90
23731;DHT22;12046;44.702;10.622;2023-02-28T03:26:19;5.80;99.90
23731;DHT22;12046;44.702;10.622;2023-02-28T03:28:52;5.80;99.90
23731;DHT22;12046;44.702;10.622;2023-02-28T03:31:21;5.80;99.90
23731;DHT22;12046;44.702;10.622;2023-02-28T03:33:54;5.80;99.90
23731;DHT22;12046;44.702;10.622;2023-02-28T03:36:25;5.80;99.90
23731;DHT22;12046;44.702;10.622;2023-02-28T03:39:02;5.80;99.90
23731;DHT22;12046;44.702;10.622;2023-02-28T03:43:59;5.80;99.90
23731;DHT22;12046;44.702;10.622;2023-02-28T03:46:28;5.80;99.90
23731;DHT22;12046;44.702;10.622;2023-02-28T03:48:57;5.80;99.90
23731;DHT22;12046;44.702;10.622;2023-02-28T03:51:26;5.70;99.90
23731;DHT22;12046;44.702;10.622;2023-02-28T03:53:54;5.80;99.90
23731;DHT22;12046;44.702;10.622;2023-02-28T03:56:22;5.70;99.90
23731;DHT22;12046;44.702;10.622;2023-02-28T03:59:33;5.70;99.90
23731;DHT22;12046;44.702;10.622;2023-02-28T04:01:40;5.70;99.90
23731;DHT22;12046;44.702;10.622;2023-02-28T04:04:07;5.70;99.90
23731;DHT22;12046;44.702;10.622;2023-02-28T04:06:33;5.70;99.90
23731;DHT22;12046;44.702;10.622;2023-02-28T04:08:59;5.70;99.90
23731;DHT22;12046;44.702;10.622;2023-02-28T04:13:50;5.70;99.90
23731;DHT22;12046;44.702;10.622;2023-02-28T04:16:16;5.70;99.90
23731;DHT22;12046;44.702;10.622;2023-02-28T04:18:42;5.70;99.90
23731;DHT22;12046;44.702;10.622;2023-02-28T04:21:08;5.70;99.90
23731;DHT22;12046;44.702;10.622;2023-02-28T04:23:34;5.70;99.90
23731;DHT22;12046;44.702;10.622;2023-02-28T04:26:00;5.70;99.90
23731;DHT22;12046;44.702;10.622;2023-02-28T04:28:26;5.70;99.90
23731;DHT22;12046;44.702;10.622;2023-02-28T04:30:55;5.70;99.90
23731;DHT22;12046;44.702;10.622;2023-02-28T04:33:21;5.70;99.90
23731;DHT22;12046;44.702;10.622;2023-02-28T04:35:46;5.60;99.90
23731;DHT22;12046;44.702;10.622;2023-02-28T04:38:12;5.70;99.90
23731;DHT22;12046;44.702;10.622;2023-02-28T04:40:38;5.70;99.90
23731;DHT22;12046;44.702;10.622;2023-02-28T04:43:03;5.70;99.90
23731;DHT22;12046;44.702;10.622;2023-02-28T04:45:29;5.70;99.90
23731;DHT22;12046;44.702;10.622;2023-02-28T04:47:57;5.70;99.90
23731;DHT22;12046;44.702;10.622;2023-02-28T04:50:23;5.70;99.90
23731;DHT22;12046;44.702;10.622;2023-02-28T04:52:48;5.70;99.90
23731;DHT22;12046;44.702;10.622;2023-02-28T04:55:14;5.70;99.90
23731;DHT22;12046;44.702;10.622;2023-02-28T04:57:40;5.60;99.90
23731;DHT22;12046;44.702;10.622;2023-02-28T05:00:08;5.60;99.90
23731;DHT22;12046;44.702;10.622;2023-02-28T05:02:37;5.60;99.90
23731;DHT22;12046;44.702;10.622;2023-02-28T05:05:02;5.70;99.90
23731;DHT22;12046;44.702;10.622;2023-02-28T05:07:28;5.70;99.90
23731;DHT22;12046;44.702;10.622;2023-02-28T05:09:54;5.70;99.90
23731;DHT22;12046;44.702;10.622;2023-02-28T05:12:20;5.70;99.90
23731;DHT22;12046;44.702;10.622;2023-02-28T05:14:45;5.70;99.90
23731;DHT22;12046;44.702;10.622;2023-02-28T05:17:11;5.70;99.90
23731;DHT22;12046;44.702;10.622;2023-02-28T05:19:36;5.70;99.90
23731;DHT22;12046;44.702;10.622;2023-02-28T05:22:02;5.70;99.90
23731;DHT22;12046;44.702;10.622;2023-02-28T05:24:28;5.70;99.90
23731;DHT22;12046;44.702;10.622;2023-02-28T05:26:54;5.70;99.90
23731;DHT22;12046;44.702;10.622;2023-02-28T05:29:19;5.70;99.90
23731;DHT22;12046;44.702;10.622;2023-02-28T05:31:45;5.70;99.90
23731;DHT22;12046;44.702;10.622;2023-02-28T05:34:11;5.80;99.90
23731;DHT22;12046;44.702;10.622;2023-02-28T05:36:38;5.70;99.90
23731;DHT22;12046;44.702;10.622;2023-02-28T05:39:04;5.80;99.90
23731;DHT22;12046;44.702;10.622;2023-02-28T05:41:30;5.80;99.90
23731;DHT22;12046;44.702;10.622;2023-02-28T05:43:57;5.80;99.90
23731;DHT22;12046;44.702;10.622;2023-02-28T05:46:22;5.70;99.90
23731;DHT22;12046;44.702;10.622;2023-02-28T05:48:48;5.70;99.90
23731;DHT22;12046;44.702;10.622;2023-02-28T05:51:14;5.70;99.90
23731;DHT22;12046;44.702;10.622;2023-02-28T05:53:40;5.70;99.90
23731;DHT22;12046;44.702;10.622;2023-02-28T05:56:05;5.70;99.90
23731;DHT22;12046;44.702;10.622;2023-02-28T05:58:31;5.70;99.90
23731;DHT22;12046;44.702;10.622;2023-02-28T06:00:57;5.70;99.90
23731;DHT22;12046;44.702;10.622;2023-02-28T06:03:23;5.70;99.90
23731;DHT22;12046;44.702;10.622;2023-02-28T06:05:49;5.70;99.90
23731;DHT22;12046;44.702;10.622;2023-02-28T06:08:15;5.70;99.90
23731;DHT22;12046;44.702;10.622;2023-02-28T06:10:41;5.70;99.90
23731;DHT22;12046;44.702;10.622;2023-02-28T06:13:07;5.70;99.90
23731;DHT22;12046;44.702;10.622;2023-02-28T06:15:32;5.70;99.90
23731;DHT22;12046;44.702;10.622;2023-02-28T06:17:58;5.70;99.90
23731;DHT22;12046;44.702;10.622;2023-02-28T06:22:59;5.70;99.90
23731;DHT22;12046;44.702;10.622;2023-02-28T06:25:26;5.80;99.90
23731;DHT22;12046;44.702;10.622;2023-02-28T06:27:52;5.70;99.90
23731;DHT22;12046;44.702;10.622;2023-02-28T06:30:17;5.70;99.90
23731;DHT22;12046;44.702;10.622;2023-02-28T06:32:43;5.70;99.90
23731;DHT22;12046;44.702;10.622;2023-02-28T06:35:09;5.70;99.90
23731;DHT22;12046;44.702;10.622;2023-02-28T06:37:35;5.70;99.90
23731;DHT22;12046;44.702;10.622;2023-02-28T06:40:00;5.70;99.90
23731;DHT22;12046;44.702;10.622;2023-02-28T06:42:26;5.70;99.90
23731;DHT22;12046;44.702;10.622;2023-02-28T06:44:57;5.50;99.90
23731;DHT22;12046;44.702;10.622;2023-02-28T06:47:23;5.40;99.90
23731;DHT22;12046;44.702;10.622;2023-02-28T06:49:48;5.30;99.90
23731;DHT22;12046;44.702;10.622;2023-02-28T06:52:14;5.20;99.90
23731;DHT22;12046;44.702;10.622;2023-02-28T06:54:40;5.20;99.90
23731;DHT22;12046;44.702;10.622;2023-02-28T06:57:06;5.10;99.90
23731;DHT22;12046;44.702;10.622;2023-02-28T06:59:32;5.10;99.90
23731;DHT22;12046;44.702;10.622;2023-02-28T07:01:57;5.10;99.90
23731;DHT22;12046;44.702;10.622;2023-02-28T07:04:24;5.10;99.90
23731;DHT22;12046;44.702;10.622;2023-02-28T07:06:50;5.10;99.90
23731;DHT22;12046;44.702;10.622;2023-02-28T07:09:16;5.10;99.90
23731;DHT22;12046;44.702;10.622;2023-02-28T07:11:41;5.00;99.90
23731;DHT22;12046;44.702;10.622;2023-02-28T07:14:08;5.00;99.90
23731;DHT22;12046;44.702;10.622;2023-02-28T07:16:34;4.90;99.90
23731;DHT22;12046;44.702;10.622;2023-02-28T07:19:00;4.90;99.90
23731;DHT22;12046;44.702;10.622;2023-02-28T07:21:26;5.00;99.90
23731;DHT22;12046;44.702;10.622;2023-02-28T07:23:51;5.00;99.90
23731;DHT22;12046;44.702;10.622;2023-02-28T07:26:18;5.10;99.90
23731;DHT22;12046;44.702;10.622;2023-02-28T07:28:44;5.10;99.90
23731;DHT22;12046;44.702;10.622;2023-02-28T07:31:10;5.10;99.90
23731;DHT22;12046;44.702;10.622;2023-02-28T07:33:36;5.20;99.90
23731;DHT22;12046;44.702;10.622;2023-02-28T07:36:09;5.20;99.90
23731;DHT22;12046;44.702;10.622;2023-02-28T07:38:39;5.30;99.90
23731;DHT22;12046;44.702;10.622;2023-02-28T07:41:04;5.30;99.90
23731;DHT22;12046;44.702;10.622;2023-02-28T07:43:31;5.30;99.90
23731;DHT22;12046;44.702;10.622;2023-02-28T07:46:01;5.40;99.90
23731;DHT22;12046;44.702;10.622;2023-02-28T07:48:26;5.50;99.90
23731;DHT22;12046;44.702;10.622;2023-02-28T07:50:55;5.40;99.90
23731;DHT22;12046;44.702;10.622;2023-02-28T07:53:21;5.50;99.90
23731;DHT22;12046;44.702;10.622;2023-02-28T07:55:46;5.50;99.90
23731;DHT22;12046;44.702;10.622;2023-02-28T07:58:12;5.50;99.90
23731;DHT22;12046;44.702;10.622;2023-02-28T08:00:38;5.50;99.90
23731;DHT22;12046;44.702;10.622;2023-02-28T08:03:03;5.50;99.90
23731;DHT22;12046;44.702;10.622;2023-02-28T08:05:29;5.40;99.90
23731;DHT22;12046;44.702;10.622;2023-02-28T08:07:56;5.40;99.90
23731;DHT22;12046;44.702;10.622;2023-02-28T08:10:22;5.50;99.90
23731;DHT22;12046;44.702;10.622;2023-02-28T08:12:47;5.40;99.90
23731;DHT22;12046;44.702;10.622;2023-02-28T08:15:13;5.50;99.90
23731;DHT22;12046;44.702;10.622;2023-02-28T08:17:39;5.50;99.90
23731;DHT22;12046;44.702;10.622;2023-02-28T08:20:04;5.40;99.90
23731;DHT22;12046;44.702;10.622;2023-02-28T08:22:30;5.50;99.90
23731;DHT22;12046;44.702;10.622;2023-02-28T08:24:56;5.50;99.90
23731;DHT22;12046;44.702;10.622;2023-02-28T08:27:21;5.60;99.90
23731;DHT22;12046;44.702;10.622;2023-02-28T08:29:47;5.60;99.90
23731;DHT22;12046;44.702;10.622;2023-02-28T08:32:13;5.60;99.90
23731;DHT22;12046;44.702;10.622;2023-02-28T08:34:39;5.60;99.90
23731;DHT22;12046;44.702;10.622;2023-02-28T08:37:05;5.60;99.90
23731;DHT22;12046;44.702;10.622;2023-02-28T08:39:30;5.70;99.90
23731;DHT22;12046;44.702;10.622;2023-02-28T08:41:58;5.70;99.90
23731;DHT22;12046;44.702;10.622;2023-02-28T08:44:25;5.70;99.90
23731;DHT22;12046;44.702;10.622;2023-02-28T08:46:51;5.80;99.90
23731;DHT22;12046;44.702;10.622;2023-02-28T08:49:16;5.80;99.90
23731;DHT22;12046;44.702;10.622;2023-02-28T08:51:42;5.90;99.90
23731;DHT22;12046;44.702;10.622;2023-02-28T08:54:08;6.00;99.90
23731;DHT22;12046;44.702;10.622;2023-02-28T08:56:34;6.10;99.90
23731;DHT22;12046;44.702;10.622;2023-02-28T08:59:02;6.10;99.90
23731;DHT22;12046;44.702;10.622;2023-02-28T09:01:28;6.20;99.90
23731;DHT22;12046;44.702;10.622;2023-02-28T09:03:54;6.30;99.90
23731;DHT22;12046;44.702;10.622;2023-02-28T09:06:22;6.40;99.90
23731;DHT22;12046;44.702;10.622;2023-02-28T09:08:48;6.50;99.90
23731;DHT22;12046;44.702;10.622;2023-02-28T09:11:14;6.70;99.90
23731;DHT22;12046;44.702;10.622;2023-02-28T09:13:40;6.80;99.90
23731;DHT22;12046;44.702;10.622;2023-02-28T09:16:08;6.90;99.90
23731;DHT22;12046;44.702;10.622;2023-02-28T09:18:35;6.90;99.90
23731;DHT22;12046;44.702;10.622;2023-02-28T09:21:06;7.00;99.90
23731;DHT22;12046;44.702;10.622;2023-02-28T09:23:32;7.10;99.90
23731;DHT22;12046;44.702;10.622;2023-02-28T09:25:58;7.10;99.90
23731;DHT22;12046;44.702;10.622;2023-02-28T09:28:24;7.20;99.90
23731;DHT22;12046;44.702;10.622;2023-02-28T09:30:50;7.40;99.90
23731;DHT22;12046;44.702;10.622;2023-02-28T09:33:17;7.50;99.90
23731;DHT22;12046;44.702;10.622;2023-02-28T09:35:46;7.60;99.90
23731;DHT22;12046;44.702;10.622;2023-02-28T09:38:12;7.70;99.90
23731;DHT22;12046;44.702;10.622;2023-02-28T09:40:39;7.80;99.90
23731;DHT22;12046;44.702;10.622;2023-02-28T09:43:09;7.80;99.90
23731;DHT22;12046;44.702;10.622;2023-02-28T09:45:39;7.80;99.90
23731;DHT22;12046;44.702;10.622;2023-02-28T09:48:14;7.80;99.90
23731;DHT22;12046;44.702;10.622;2023-02-28T09:50:42;7.80;99.90
23731;DHT22;12046;44.702;10.622;2023-02-28T09:53:15;7.90;99.90
23731;DHT22;12046;44.702;10.622;2023-02-28T09:55:48;7.90;99.90
23731;DHT22;12046;44.702;10.622;2023-02-28T09:58:37;8.00;99.90
23731;DHT22;12046;44.702;10.622;2023-02-28T10:01:07;8.10;99.90
23731;DHT22;12046;44.702;10.622;2023-02-28T10:06:07;8.00;99.90
23731;DHT22;12046;44.702;10.622;2023-02-28T10:08:37;8.00;99.90
23731;DHT22;12046;44.702;10.622;2023-02-28T10:11:07;8.00;99.90
23731;DHT22;12046;44.702;10.622;2023-02-28T10:13:35;7.90;99.90
23731;DHT22;12046;44.702;10.622;2023-02-28T10:16:11;7.70;99.90
23731;DHT22;12046;44.702;10.622;2023-02-28T10:18:52;7.70;99.90
23731;DHT22;12046;44.702;10.622;2023-02-28T10:21:28;7.80;99.90
23731;DHT22;12046;44.702;10.622;2023-02-28T10:26:38;7.90;99.90
23731;DHT22;12046;44.702;10.622;2023-02-28T10:29:07;8.00;99.90
23731;DHT22;12046;44.702;10.622;2023-02-28T10:31:33;8.10;99.90
23731;DHT22;12046;44.702;10.622;2023-02-28T10:33:58;8.10;99.90
23731;DHT22;12046;44.702;10.622;2023-02-28T10:36:24;8.20;99.90
23731;DHT22;12046;44.702;10.622;2023-02-28T10:38:49;8.20;99.90
23731;DHT22;12046;44.702;10.622;2023-02-28T10:41:16;8.30;99.90
23731;DHT22;12046;44.702;10.622;2023-02-28T10:43:43;8.30;99.90
23731;DHT22;12046;44.702;10.622;2023-02-28T10:46:11;8.40;99.90
23731;DHT22;12046;44.702;10.622;2023-02-28T10:51:08;8.40;99.90
23731;DHT22;12046;44.702;10.622;2023-02-28T10:53:36;8.40;99.90
23731;DHT22;12046;44.702;10.622;2023-02-28T11:00:58;8.30;99.90
23731;DHT22;12046;44.702;10.622;2023-02-28T11:05:49;8.20;99.90
23731;DHT22;12046;44.702;10.622;2023-02-28T11:08:16;8.20;99.90
23731;DHT22;12046;44.702;10.622;2023-02-28T11:10:53;8.20;99.90
23731;DHT22;12046;44.702;10.622;2023-02-28T11:13:20;8.20;99.90
23731;DHT22;12046;44.702;10.622;2023-02-28T11:48:36;8.00;99.90
23731;DHT22;12046;44.702;10.622;2023-02-28T11:51:15;8.00;99.90
23731;DHT22;12046;44.702;10.622;2023-02-28T11:59:15;8.20;99.90
23731;DHT22;12046;44.702;10.622;2023-02-28T12:07:18;8.40;99.90
23731;DHT22;12046;44.702;10.622;2023-02-28T12:19:55;8.40;99.50
23731;DHT22;12046;44.702;10.622;2023-02-28T12:25:00;8.40;99.60
23731;DHT22;12046;44.702;10.622;2023-02-28T12:27:29;8.30;99.70
23731;DHT22;12046;44.702;10.622;2023-02-28T12:30:04;8.30;99.70
23731;DHT22;12046;44.702;10.622;2023-02-28T12:32:37;8.40;99.70
23731;DHT22;12046;44.702;10.622;2023-02-28T12:35:05;8.40;99.80
23731;DHT22;12046;44.702;10.622;2023-02-28T12:37:34;8.40;99.80
23731;DHT22;12046;44.702;10.622;2023-02-28T12:40:14;8.50;99.70
23731;DHT22;12046;44.702;10.622;2023-02-28T12:42:42;8.60;99.50
23731;DHT22;12046;44.702;10.622;2023-02-28T12:45:22;8.60;99.40
23731;DHT22;12046;44.702;10.622;2023-02-28T12:47:49;8.60;99.40
23731;DHT22;12046;44.702;10.622;2023-02-28T12:50:16;8.60;99.50
23731;DHT22;12046;44.702;10.622;2023-02-28T12:53:01;8.60;99.50
23731;DHT22;12046;44.702;10.622;2023-02-28T13:00:48;8.60;99.40
23731;DHT22;12046;44.702;10.622;2023-02-28T13:10:53;8.90;99.30
23731;DHT22;12046;44.702;10.622;2023-02-28T13:13:21;8.90;99.20
23731;DHT22;12046;44.702;10.622;2023-02-28T13:15:58;8.90;99.00
23731;DHT22;12046;44.702;10.622;2023-02-28T13:20:56;8.80;99.10
23731;DHT22;12046;44.702;10.622;2023-02-28T13:23:39;8.80;99.10
23731;DHT22;12046;44.702;10.622;2023-02-28T13:26:05;8.80;99.20
23731;DHT22;12046;44.702;10.622;2023-02-28T13:31:15;9.10;99.20
23731;DHT22;12046;44.702;10.622;2023-02-28T13:51:44;9.60;97.80
23731;DHT22;12046;44.702;10.622;2023-02-28T13:54:16;9.70;97.70
23731;DHT22;12046;44.702;10.622;2023-02-28T13:59:18;10.00;97.70
23731;DHT22;12046;44.702;10.622;2023-02-28T14:06:48;10.60;97.10
23731;DHT22;12046;44.702;10.622;2023-02-28T14:09:17;11.00;96.70
23731;DHT22;12046;44.702;10.622;2023-02-28T14:11:45;11.30;96.40
23731;DHT22;12046;44.702;10.622;2023-02-28T14:16:55;12.10;95.00
23731;DHT22;12046;44.702;10.622;2023-02-28T14:19:26;12.30;94.80
23731;DHT22;12046;44.702;10.622;2023-02-28T14:30:11;12.10;93.50
23731;DHT22;12046;44.702;10.622;2023-02-28T14:37:43;11.10;93.80
23731;DHT22;12046;44.702;10.622;2023-02-28T14:40:16;10.80;94.30
23731;DHT22;12046;44.702;10.622;2023-02-28T14:42:48;10.60;94.60
23731;DHT22;12046;44.702;10.622;2023-02-28T14:45:17;10.30;94.90
23731;DHT22;12046;44.702;10.622;2023-02-28T14:47:43;10.10;95.20
23731;DHT22;12046;44.702;10.622;2023-02-28T14:50:17;9.90;95.50
23731;DHT22;12046;44.702;10.622;2023-02-28T14:52:43;9.60;95.80
23731;DHT22;12046;44.702;10.622;2023-02-28T14:55:17;9.40;96.10
23731;DHT22;12046;44.702;10.622;2023-02-28T14:57:51;9.20;96.40
23731;DHT22;12046;44.702;10.622;2023-02-28T15:00:25;9.10;96.60
23731;DHT22;12046;44.702;10.622;2023-02-28T15:02:51;9.00;96.80
23731;DHT22;12046;44.702;10.622;2023-02-28T15:07:44;8.90;97.20
23731;DHT22;12046;44.702;10.622;2023-02-28T15:12:46;8.90;97.60
23731;DHT22;12046;44.702;10.622;2023-02-28T15:15:15;8.80;97.70
23731;DHT22;12046;44.702;10.622;2023-02-28T15:17:49;8.80;97.80
23731;DHT22;12046;44.702;10.622;2023-02-28T15:20:16;8.80;98.00
23731;DHT22;12046;44.702;10.622;2023-02-28T15:22:52;8.80;98.00
23731;DHT22;12046;44.702;10.622;2023-02-28T15:25:21;8.70;98.00
23731;DHT22;12046;44.702;10.622;2023-02-28T15:27:51;8.60;98.00
23731;DHT22;12046;44.702;10.622;2023-02-28T15:30:20;8.50;98.40
23731;DHT22;12046;44.702;10.622;2023-02-28T15:33:01;8.50;98.30
23731;DHT22;12046;44.702;10.622;2023-02-28T15:35:28;8.50;98.40
23731;DHT22;12046;44.702;10.622;2023-02-28T15:37:56;8.50;98.40
23731;DHT22;12046;44.702;10.622;2023-02-28T15:43:02;8.50;98.50
23731;DHT22;12046;44.702;10.622;2023-02-28T15:45:32;8.40;98.60
23731;DHT22;12046;44.702;10.622;2023-02-28T15:48:00;8.40;98.60
23731;DHT22;12046;44.702;10.622;2023-02-28T15:50:27;8.30;98.70
23731;DHT22;12046;44.702;10.622;2023-02-28T15:52:53;8.20;98.70
23731;DHT22;12046;44.702;10.622;2023-02-28T15:55:20;8.20;98.90
23731;DHT22;12046;44.702;10.622;2023-02-28T15:57:48;8.10;99.00
23731;DHT22;12046;44.702;10.622;2023-02-28T16:00:15;8.10;99.00
23731;DHT22;12046;44.702;10.622;2023-02-28T16:02:41;8.10;99.10
23731;DHT22;12046;44.702;10.622;2023-02-28T16:07:33;8.00;99.20
23731;DHT22;12046;44.702;10.622;2023-02-28T16:09:59;8.00;99.20
23731;DHT22;12046;44.702;10.622;2023-02-28T16:12:29;8.00;99.20
23731;DHT22;12046;44.702;10.622;2023-02-28T16:14:56;7.90;99.30
23731;DHT22;12046;44.702;10.622;2023-02-28T16:17:23;7.90;99.40
23731;DHT22;12046;44.702;10.622;2023-02-28T16:19:52;7.80;99.50
23731;DHT22;12046;44.702;10.622;2023-02-28T16:22:18;7.80;99.60
23731;DHT22;12046;44.702;10.622;2023-02-28T16:24:44;7.90;99.70
23731;DHT22;12046;44.702;10.622;2023-02-28T16:30:22;7.80;99.70
23731;DHT22;12046;44.702;10.622;2023-02-28T16:32:58;7.80;99.80
23731;DHT22;12046;44.702;10.622;2023-02-28T16:35:24;7.70;99.80
23731;DHT22;12046;44.702;10.622;2023-02-28T16:37:53;7.70;99.90
23731;DHT22;12046;44.702;10.622;2023-02-28T16:40:24;7.60;99.90
23731;DHT22;12046;44.702;10.622;2023-02-28T16:42:57;7.50;99.90
23731;DHT22;12046;44.702;10.622;2023-02-28T16:45:25;7.50;99.90
23731;DHT22;12046;44.702;10.622;2023-02-28T16:47:51;7.40;99.90
23731;DHT22;12046;44.702;10.622;2023-02-28T16:50:18;7.40;99.90
23731;DHT22;12046;44.702;10.622;2023-02-28T16:52:44;7.40;99.90
23731;DHT22;12046;44.702;10.622;2023-02-28T16:55:10;7.40;99.90
23731;DHT22;12046;44.702;10.622;2023-02-28T16:57:39;7.40;99.90
23731;DHT22;12046;44.702;10.622;2023-02-28T17:00:12;7.40;99.90
23731;DHT22;12046;44.702;10.622;2023-02-28T17:02:41;7.40;99.90
23731;DHT22;12046;44.702;10.622;2023-02-28T17:05:13;7.30;99.90
23731;DHT22;12046;44.702;10.622;2023-02-28T17:07:40;7.30;99.90
23731;DHT22;12046;44.702;10.622;2023-02-28T17:10:13;7.30;99.90
23731;DHT22;12046;44.702;10.622;2023-02-28T17:12:41;7.30;99.90
23731;DHT22;12046;44.702;10.622;2023-02-28T17:15:08;7.30;99.90
23731;DHT22;12046;44.702;10.622;2023-02-28T17:17:34;7.20;99.90
23731;DHT22;12046;44.702;10.622;2023-02-28T17:20:00;7.20;99.90
23731;DHT22;12046;44.702;10.622;2023-02-28T17:22:25;7.20;99.90
23731;DHT22;12046;44.702;10.622;2023-02-28T17:24:51;7.30;99.90
23731;DHT22;12046;44.702;10.622;2023-02-28T17:27:23;7.30;99.90
23731;DHT22;12046;44.702;10.622;2023-02-28T17:36:47;7.30;99.90
23731;DHT22;12046;44.702;10.622;2023-02-28T17:52:51;7.30;99.90
23731;DHT22;12046;44.702;10.622;2023-02-28T17:55:20;7.40;99.90
23731;DHT22;12046;44.702;10.622;2023-02-28T17:58:30;7.40;99.90
23731;DHT22;12046;44.702;10.622;2023-02-28T18:00:46;7.40;99.90
23731;DHT22;12046;44.702;10.622;2023-02-28T18:03:34;7.40;99.90
23731;DHT22;12046;44.702;10.622;2023-02-28T18:06:06;7.40;99.90
23731;DHT22;12046;44.702;10.622;2023-02-28T18:22:11;7.40;99.90
23731;DHT22;12046;44.702;10.622;2023-02-28T18:24:49;7.40;99.90
23731;DHT22;12046;44.702;10.622;2023-02-28T18:27:14;7.40;99.90
23731;DHT22;12046;44.702;10.622;2023-02-28T18:29:40;7.50;99.90
23731;DHT22;12046;44.702;10.622;2023-02-28T18:32:06;7.50;99.90
23731;DHT22;12046;44.702;10.622;2023-02-28T18:34:31;7.50;99.90
23731;DHT22;12046;44.702;10.622;2023-02-28T18:36:57;7.50;99.90
23731;DHT22;12046;44.702;10.622;2023-02-28T18:39:23;7.50;99.90
23731;DHT22;12046;44.702;10.622;2023-02-28T18:41:48;7.50;99.90
23731;DHT22;12046;44.702;10.622;2023-02-28T18:44:14;7.60;99.90
23731;DHT22;12046;44.702;10.622;2023-02-28T18:46:40;7.60;99.90
23731;DHT22;12046;44.702;10.622;2023-02-28T18:49:05;7.60;99.90
23731;DHT22;12046;44.702;10.622;2023-02-28T18:51:31;7.60;99.90
23731;DHT22;12046;44.702;10.622;2023-02-28T18:53:57;7.60;99.90
23731;DHT22;12046;44.702;10.622;2023-02-28T18:56:24;7.70;99.90
23731;DHT22;12046;44.702;10.622;2023-02-28T19:01:38;7.70;99.90
23731;DHT22;12046;44.702;10.622;2023-02-28T19:04:05;7.70;99.90
23731;DHT22;12046;44.702;10.622;2023-02-28T19:06:31;7.60;99.90
23731;DHT22;12046;44.702;10.622;2023-02-28T19:08:57;7.70;99.90
23731;DHT22;12046;44.702;10.622;2023-02-28T19:11:24;7.70;99.90
23731;DHT22;12046;44.702;10.622;2023-02-28T19:13:52;7.70;99.90
23731;DHT22;12046;44.702;10.622;2023-02-28T19:16:18;7.70;99.90